sensor_id;sensor_type;location;lat;lon;timestamp;pressure;altitude;pressure_sealevel;temperature;humidity
61757;BME280;57225;61.460;24.060;2023-06-22T00:02:28;99793.22;;;17.64;72.80
61757;BME280;57225;61.460;24.060;2023-06-22T00:05:12;99786.81;;;17.51;73.30
61757;BME280;57225;61.460;24.060;2023-06-22T00:07:57;99791.66;;;17.50;74.31
61757;BME280;57225;61.460;24.060;2023-06-22T00:10:42;99777.66;;;17.38;74.73
61757;BME280;57225;61.460;24.060;2023-06-22T00:13:26;99782.59;;;17.34;75.26
61757;BME280;57225;61.460;24.060;2023-06-22T00:16:10;99766.78;;;17.14;75.91
61757;BME280;57225;61.460;24.060;2023-06-22T00:18:55;99780.63;;;17.21;76.17
61757;BME280;57225;61.460;24.060;2023-06-22T00:21:39;99779.72;;;17.24;75.97
61757;BME280;57225;61.460;24.060;2023-06-22T00:24:25;99768.66;;;17.30;75.75
61757;BME280;57225;61.460;24.060;2023-06-22T00:27:09;99759.06;;;17.27;75.03
61757;BME280;57225;61.460;24.060;2023-06-22T00:29:54;99768.06;;;17.35;75.17
61757;BME280;57225;61.460;24.060;2023-06-22T00:32:39;99743.09;;;17.24;75.76
61757;BME280;57225;61.460;24.060;2023-06-22T00:35:26;99762.44;;;17.35;75.88
61757;BME280;57225;61.460;24.060;2023-06-22T00:38:13;99755.63;;;17.23;75.94
61757;BME280;57225;61.460;24.060;2023-06-22T00:40:58;99750.09;;;17.20;76.11
61757;BME280;57225;61.460;24.060;2023-06-22T00:43:42;99759.81;;;17.19;77.27
61757;BME280;57225;61.460;24.060;2023-06-22T00:46:27;99760.84;;;17.12;77.49
61757;BME280;57225;61.460;24.060;2023-06-22T00:49:12;99756.31;;;17.15;77.36
61757;BME280;57225;61.460;24.060;2023-06-22T00:51:57;99741.69;;;17.07;77.75
61757;BME280;57225;61.460;24.060;2023-06-22T00:54:42;99744.50;;;17.07;78.49
61757;BME280;57225;61.460;24.060;2023-06-22T00:57:30;99759.66;;;17.01;79.65
61757;BME280;57225;61.460;24.060;2023-06-22T01:00:15;99750.88;;;16.99;79.62
61757;BME280;57225;61.460;24.060;2023-06-22T01:03:02;99753.88;;;17.04;79.12
61757;BME280;57225;61.460;24.060;2023-06-22T01:05:47;99743.28;;;17.08;78.83
61757;BME280;57225;61.460;24.060;2023-06-22T01:08:47;99730.13;;;17.05;78.43
61757;BME280;57225;61.460;24.060;2023-06-22T01:11:40;99734.72;;;17.12;78.56
61757;BME280;57225;61.460;24.060;2023-06-22T01:14:35;99729.94;;;17.00;79.63
61757;BME280;57225;61.460;24.060;2023-06-22T01:17:23;99635.91;;;16.28;80.06
61757;BME280;57225;61.460;24.060;2023-06-22T01:20:09;99729.28;;;16.83;80.10
61757;BME280;57225;61.460;24.060;2023-06-22T01:26:18;99733.63;;;16.97;79.38
61757;BME280;57225;61.460;24.060;2023-06-22T01:29:06;99727.75;;;17.04;78.82
61757;BME280;57225;61.460;24.060;2023-06-22T01:31:54;99733.59;;;17.09;78.12
61757;BME280;57225;61.460;24.060;2023-06-22T01:34:40;99726.81;;;17.19;77.85
61757;BME280;57225;61.460;24.060;2023-06-22T01:37:27;99723.69;;;17.26;78.39
61757;BME280;57225;61.460;24.060;2023-06-22T01:40:13;99738.47;;;17.31;79.31
61757;BME280;57225;61.460;24.060;2023-06-22T01:43:00;99724.91;;;17.38;78.46
61757;BME280;57225;61.460;24.060;2023-06-22T01:45:46;99705.63;;;17.37;78.70
61757;BME280;57225;61.460;24.060;2023-06-22T01:48:31;99690.88;;;17.33;79.00
61757;BME280;57225;61.460;24.060;2023-06-22T01:51:16;99724.63;;;17.67;79.52
61757;BME280;57225;61.460;24.060;2023-06-22T01:54:05;99713.97;;;17.62;78.29
61757;BME280;57225;61.460;24.060;2023-06-22T01:56:49;99717.75;;;17.68;78.77
61757;BME280;57225;61.460;24.060;2023-06-22T01:59:48;99718.00;;;17.83;79.57
61757;BME280;57225;61.460;24.060;2023-06-22T02:05:45;99723.19;;;17.93;78.25
61757;BME280;57225;61.460;24.060;2023-06-22T02:08:37;99692.28;;;17.81;77.72
61757;BME280;57225;61.460;24.060;2023-06-22T02:11:23;99699.41;;;17.94;77.72
61757;BME280;57225;61.460;24.060;2023-06-22T02:14:10;99708.72;;;18.13;77.42
61757;BME280;57225;61.460;24.060;2023-06-22T02:16:56;99717.19;;;18.22;77.15
61757;BME280;57225;61.460;24.060;2023-06-22T02:19:42;99702.13;;;18.16;77.49
61757;BME280;57225;61.460;24.060;2023-06-22T02:22:27;99699.47;;;18.22;77.73
61757;BME280;57225;61.460;24.060;2023-06-22T02:25:12;99715.03;;;18.35;77.98
61757;BME280;57225;61.460;24.060;2023-06-22T02:27:56;99715.25;;;18.50;77.03
61757;BME280;57225;61.460;24.060;2023-06-22T02:30:41;99714.03;;;18.60;77.24
61757;BME280;57225;61.460;24.060;2023-06-22T02:33:25;99691.78;;;18.62;77.32
61757;BME280;57225;61.460;24.060;2023-06-22T02:36:10;99713.44;;;18.83;76.56
61757;BME280;57225;61.460;24.060;2023-06-22T02:38:57;99708.75;;;19.08;76.25
61757;BME280;57225;61.460;24.060;2023-06-22T02:41:42;99703.06;;;19.26;75.43
61757;BME280;57225;61.460;24.060;2023-06-22T02:44:27;99697.72;;;19.46;73.44
61757;BME280;57225;61.460;24.060;2023-06-22T02:47:11;99698.16;;;19.63;71.79
61757;BME280;57225;61.460;24.060;2023-06-22T02:49:56;99698.94;;;19.73;73.03
61757;BME280;57225;61.460;24.060;2023-06-22T02:52:41;99702.22;;;19.71;72.52
61757;BME280;57225;61.460;24.060;2023-06-22T02:55:25;99670.16;;;19.74;71.97
61757;BME280;57225;61.460;24.060;2023-06-22T02:58:09;99694.25;;;20.02;70.64
61757;BME280;57225;61.460;24.060;2023-06-22T03:00:54;99681.13;;;20.14;70.52
61757;BME280;57225;61.460;24.060;2023-06-22T03:03:38;99688.50;;;20.21;69.33
61757;BME280;57225;61.460;24.060;2023-06-22T03:06:23;99678.88;;;20.27;68.78
61757;BME280;57225;61.460;24.060;2023-06-22T03:09:12;99678.66;;;20.40;68.17
61757;BME280;57225;61.460;24.060;2023-06-22T03:11:57;99680.78;;;20.54;67.72
61757;BME280;57225;61.460;24.060;2023-06-22T03:14:41;99678.06;;;20.60;66.57
61757;BME280;57225;61.460;24.060;2023-06-22T03:17:25;99681.44;;;20.73;65.88
61757;BME280;57225;61.460;24.060;2023-06-22T03:20:10;99676.94;;;20.81;66.00
61757;BME280;57225;61.460;24.060;2023-06-22T03:22:56;99667.59;;;20.90;66.11
61757;BME280;57225;61.460;24.060;2023-06-22T03:25:42;99671.16;;;21.14;64.88
61757;BME280;57225;61.460;24.060;2023-06-22T03:28:28;99675.72;;;21.35;64.04
61757;BME280;57225;61.460;24.060;2023-06-22T03:31:13;99637.50;;;21.31;63.54
61757;BME280;57225;61.460;24.060;2023-06-22T03:33:58;99671.59;;;21.65;63.06
61757;BME280;57225;61.460;24.060;2023-06-22T03:36:42;99650.78;;;21.69;62.56
61757;BME280;57225;61.460;24.060;2023-06-22T03:39:29;99663.66;;;21.84;62.16
61757;BME280;57225;61.460;24.060;2023-06-22T03:42:13;99670.19;;;21.90;61.82
61757;BME280;57225;61.460;24.060;2023-06-22T03:44:59;99653.75;;;21.94;61.52
61757;BME280;57225;61.460;24.060;2023-06-22T03:47:45;99658.44;;;22.12;61.74
61757;BME280;57225;61.460;24.060;2023-06-22T03:50:29;99669.19;;;22.23;61.27
61757;BME280;57225;61.460;24.060;2023-06-22T03:53:17;99668.19;;;22.46;59.74
61757;BME280;57225;61.460;24.060;2023-06-22T03:56:11;99668.84;;;22.96;57.73
61757;BME280;57225;61.460;24.060;2023-06-22T03:58:55;99665.44;;;23.38;56.87
61757;BME280;57225;61.460;24.060;2023-06-22T04:01:40;99638.19;;;23.26;56.87
61757;BME280;57225;61.460;24.060;2023-06-22T04:04:24;99642.00;;;23.23;57.30
61757;BME280;57225;61.460;24.060;2023-06-22T04:07:09;99664.28;;;23.24;58.22
61757;BME280;57225;61.460;24.060;2023-06-22T04:09:53;99658.28;;;22.97;58.44
61757;BME280;57225;61.460;24.060;2023-06-22T04:12:38;99633.22;;;22.75;59.17
61757;BME280;57225;61.460;24.060;2023-06-22T04:15:22;99648.25;;;22.61;59.65
61757;BME280;57225;61.460;24.060;2023-06-22T04:18:07;99652.44;;;22.45;60.18
61757;BME280;57225;61.460;24.060;2023-06-22T04:20:54;99647.19;;;22.38;60.57
61757;BME280;57225;61.460;24.060;2023-06-22T04:23:39;99646.25;;;22.26;61.07
61757;BME280;57225;61.460;24.060;2023-06-22T04:26:23;99636.34;;;22.01;62.06
61757;BME280;57225;61.460;24.060;2023-06-22T04:29:08;99627.94;;;21.92;62.48
61757;BME280;57225;61.460;24.060;2023-06-22T04:31:59;99645.44;;;22.05;62.24
61757;BME280;57225;61.460;24.060;2023-06-22T04:34:46;99635.75;;;22.12;62.57
61757;BME280;57225;61.460;24.060;2023-06-22T04:37:31;99639.03;;;22.25;62.46
61757;BME280;57225;61.460;24.060;2023-06-22T04:40:15;99627.03;;;22.36;62.48
61757;BME280;57225;61.460;24.060;2023-06-22T04:43:01;99627.81;;;22.57;61.83
61757;BME280;57225;61.460;24.060;2023-06-22T04:45:46;99628.88;;;22.59;61.69
61757;BME280;57225;61.460;24.060;2023-06-22T04:48:30;99631.72;;;22.59;61.72
61757;BME280;57225;61.460;24.060;2023-06-22T04:51:18;99628.44;;;22.46;62.09
61757;BME280;57225;61.460;24.060;2023-06-22T04:54:06;99629.59;;;22.54;61.95
61757;BME280;57225;61.460;24.060;2023-06-22T04:56:50;99618.91;;;22.90;61.15
61757;BME280;57225;61.460;24.060;2023-06-22T04:59:41;99614.69;;;24.31;57.80
61757;BME280;57225;61.460;24.060;2023-06-22T05:02:25;99613.72;;;25.49;53.44
61757;BME280;57225;61.460;24.060;2023-06-22T05:05:12;99612.84;;;26.49;50.85
61757;BME280;57225;61.460;24.060;2023-06-22T05:07:57;99609.44;;;27.08;48.70
61757;BME280;57225;61.460;24.060;2023-06-22T05:10:44;99601.88;;;27.10;48.17
61757;BME280;57225;61.460;24.060;2023-06-22T05:13:29;99611.81;;;27.39;49.20
61757;BME280;57225;61.460;24.060;2023-06-22T05:16:13;99612.31;;;27.43;47.92
61757;BME280;57225;61.460;24.060;2023-06-22T05:18:58;99608.38;;;27.11;48.84
61757;BME280;57225;61.460;24.060;2023-06-22T05:21:42;99605.97;;;26.68;50.17
61757;BME280;57225;61.460;24.060;2023-06-22T05:24:27;99619.41;;;26.27;51.40
61757;BME280;57225;61.460;24.060;2023-06-22T05:27:11;99609.88;;;25.57;53.84
61757;BME280;57225;61.460;24.060;2023-06-22T05:29:56;99605.16;;;25.49;54.58
61757;BME280;57225;61.460;24.060;2023-06-22T05:32:40;99605.44;;;25.51;55.00
61757;BME280;57225;61.460;24.060;2023-06-22T05:35:25;99602.31;;;25.49;54.57
61757;BME280;57225;61.460;24.060;2023-06-22T05:38:09;99593.75;;;25.32;54.42
61757;BME280;57225;61.460;24.060;2023-06-22T05:40:54;99571.44;;;25.19;55.46
61757;BME280;57225;61.460;24.060;2023-06-22T05:43:38;99579.22;;;25.24;55.74
61757;BME280;57225;61.460;24.060;2023-06-22T05:46:23;99549.91;;;25.02;56.20
61757;BME280;57225;61.460;24.060;2023-06-22T05:49:07;99587.78;;;25.30;56.58
61757;BME280;57225;61.460;24.060;2023-06-22T05:51:52;99584.94;;;25.30;55.33
61757;BME280;57225;61.460;24.060;2023-06-22T05:54:37;99583.88;;;25.11;55.25
61757;BME280;57225;61.460;24.060;2023-06-22T05:57:23;99587.50;;;25.17;56.67
61757;BME280;57225;61.460;24.060;2023-06-22T06:00:07;99553.78;;;25.04;56.32
61757;BME280;57225;61.460;24.060;2023-06-22T06:02:55;99577.81;;;24.70;56.87
61757;BME280;57225;61.460;24.060;2023-06-22T06:05:39;99576.72;;;24.62;57.05
61757;BME280;57225;61.460;24.060;2023-06-22T06:08:24;99572.25;;;24.38;56.53
61757;BME280;57225;61.460;24.060;2023-06-22T06:11:08;99578.00;;;24.50;56.79
61757;BME280;57225;61.460;24.060;2023-06-22T06:13:52;99580.88;;;24.61;56.97
61757;BME280;57225;61.460;24.060;2023-06-22T06:16:37;99556.50;;;24.60;57.45
61757;BME280;57225;61.460;24.060;2023-06-22T06:19:21;99550.88;;;24.71;57.53
61757;BME280;57225;61.460;24.060;2023-06-22T06:22:06;99570.56;;;24.80;58.24
61757;BME280;57225;61.460;24.060;2023-06-22T06:24:50;99566.41;;;24.75;57.36
61757;BME280;57225;61.460;24.060;2023-06-22T06:27:35;99556.84;;;24.78;58.28
61757;BME280;57225;61.460;24.060;2023-06-22T06:30:19;99575.81;;;24.98;57.92
61757;BME280;57225;61.460;24.060;2023-06-22T06:33:04;99563.38;;;25.01;59.26
61757;BME280;57225;61.460;24.060;2023-06-22T06:35:52;99570.66;;;25.19;58.15
61757;BME280;57225;61.460;24.060;2023-06-22T06:38:37;99564.94;;;25.36;56.72
61757;BME280;57225;61.460;24.060;2023-06-22T06:41:22;99553.81;;;25.15;58.14
61757;BME280;57225;61.460;24.060;2023-06-22T06:44:07;99558.47;;;25.30;58.34
61757;BME280;57225;61.460;24.060;2023-06-22T06:46:51;99558.75;;;25.32;57.60
61757;BME280;57225;61.460;24.060;2023-06-22T06:49:35;99564.72;;;25.28;58.49
61757;BME280;57225;61.460;24.060;2023-06-22T06:52:20;99574.03;;;25.12;58.70
61757;BME280;57225;61.460;24.060;2023-06-22T06:55:05;99576.34;;;25.02;58.63
61757;BME280;57225;61.460;24.060;2023-06-22T06:57:53;99558.94;;;24.83;59.03
61757;BME280;57225;61.460;24.060;2023-06-22T07:00:37;99566.38;;;24.64;60.46
61757;BME280;57225;61.460;24.060;2023-06-22T07:03:22;99569.72;;;24.52;61.12
61757;BME280;57225;61.460;24.060;2023-06-22T07:06:08;99574.38;;;24.01;62.75
61757;BME280;57225;61.460;24.060;2023-06-22T07:08:53;99576.06;;;23.82;64.37
61757;BME280;57225;61.460;24.060;2023-06-22T07:11:37;99589.94;;;23.69;64.59
61757;BME280;57225;61.460;24.060;2023-06-22T07:14:22;99582.03;;;23.52;65.35
61757;BME280;57225;61.460;24.060;2023-06-22T07:17:06;99574.44;;;23.38;65.57
61757;BME280;57225;61.460;24.060;2023-06-22T07:19:51;99580.19;;;23.18;66.84
61757;BME280;57225;61.460;24.060;2023-06-22T07:22:36;99555.22;;;23.02;67.30
61757;BME280;57225;61.460;24.060;2023-06-22T07:25:20;99580.34;;;23.09;67.87
61757;BME280;57225;61.460;24.060;2023-06-22T07:28:06;99559.91;;;23.05;67.98
61757;BME280;57225;61.460;24.060;2023-06-22T07:30:51;99577.44;;;23.29;68.38
61757;BME280;57225;61.460;24.060;2023-06-22T07:33:35;99575.91;;;23.34;67.26
61757;BME280;57225;61.460;24.060;2023-06-22T07:36:20;99580.84;;;23.33;67.89
61757;BME280;57225;61.460;24.060;2023-06-22T07:39:05;99584.69;;;23.30;68.38
61757;BME280;57225;61.460;24.060;2023-06-22T07:41:49;99580.97;;;23.18;68.64
61757;BME280;57225;61.460;24.060;2023-06-22T07:44:34;99585.81;;;23.12;69.18
61757;BME280;57225;61.460;24.060;2023-06-22T07:47:19;99586.50;;;22.76;70.81
61757;BME280;57225;61.460;24.060;2023-06-22T07:50:04;99583.72;;;22.41;72.44
61757;BME280;57225;61.460;24.060;2023-06-22T07:52:49;99576.41;;;22.34;72.93
61757;BME280;57225;61.460;24.060;2023-06-22T07:55:33;99570.38;;;22.07;74.17
61757;BME280;57225;61.460;24.060;2023-06-22T07:58:18;99567.97;;;21.99;74.68
61757;BME280;57225;61.460;24.060;2023-06-22T08:01:03;99579.09;;;22.03;75.74
61757;BME280;57225;61.460;24.060;2023-06-22T08:03:48;99571.97;;;21.93;77.87
61757;BME280;57225;61.460;24.060;2023-06-22T08:06:33;99578.66;;;21.75;81.35
61757;BME280;57225;61.460;24.060;2023-06-22T08:09:18;99580.66;;;21.54;83.42
61757;BME280;57225;61.460;24.060;2023-06-22T08:12:02;99587.13;;;21.40;85.06
61757;BME280;57225;61.460;24.060;2023-06-22T08:14:46;99580.59;;;21.34;84.83
61757;BME280;57225;61.460;24.060;2023-06-22T08:17:31;99563.38;;;21.08;86.52
61757;BME280;57225;61.460;24.060;2023-06-22T08:20:15;99579.69;;;21.13;85.31
61757;BME280;57225;61.460;24.060;2023-06-22T08:23:00;99550.28;;;20.96;85.46
61757;BME280;57225;61.460;24.060;2023-06-22T08:25:49;99581.81;;;20.89;87.18
61757;BME280;57225;61.460;24.060;2023-06-22T08:28:35;99584.25;;;20.81;88.14
61757;BME280;57225;61.460;24.060;2023-06-22T08:31:19;99587.09;;;20.81;89.69
61757;BME280;57225;61.460;24.060;2023-06-22T08:34:04;99571.25;;;20.75;89.27
61757;BME280;57225;61.460;24.060;2023-06-22T08:36:48;99580.38;;;20.79;89.59
61757;BME280;57225;61.460;24.060;2023-06-22T08:39:36;99570.28;;;20.78;89.80
61757;BME280;57225;61.460;24.060;2023-06-22T08:42:20;99580.94;;;20.83;90.15
61757;BME280;57225;61.460;24.060;2023-06-22T08:45:05;99555.63;;;20.65;89.38
61757;BME280;57225;61.460;24.060;2023-06-22T08:47:50;99568.16;;;20.73;90.95
61757;BME280;57225;61.460;24.060;2023-06-22T08:50:34;99567.16;;;20.76;91.34
61757;BME280;57225;61.460;24.060;2023-06-22T08:53:34;99566.94;;;20.65;92.14
61757;BME280;57225;61.460;24.060;2023-06-22T08:56:19;99566.75;;;20.54;94.92
61757;BME280;57225;61.460;24.060;2023-06-22T08:59:03;99534.78;;;20.38;93.42
61757;BME280;57225;61.460;24.060;2023-06-22T09:01:48;99557.00;;;20.55;94.22
61757;BME280;57225;61.460;24.060;2023-06-22T09:04:32;99556.75;;;20.43;92.00
61757;BME280;57225;61.460;24.060;2023-06-22T09:07:20;99545.16;;;20.41;92.71
61757;BME280;57225;61.460;24.060;2023-06-22T09:10:06;99561.34;;;20.41;93.66
61757;BME280;57225;61.460;24.060;2023-06-22T09:12:51;99544.75;;;20.25;95.01
61757;BME280;57225;61.460;24.060;2023-06-22T09:15:35;99554.00;;;20.34;95.71
61757;BME280;57225;61.460;24.060;2023-06-22T09:18:20;99549.34;;;20.46;96.35
61757;BME280;57225;61.460;24.060;2023-06-22T09:21:05;99555.84;;;20.61;93.69
61757;BME280;57225;61.460;24.060;2023-06-22T09:23:49;99553.66;;;20.56;93.43
61757;BME280;57225;61.460;24.060;2023-06-22T09:26:36;99556.31;;;20.60;93.00
61757;BME280;57225;61.460;24.060;2023-06-22T09:29:21;99550.03;;;20.56;92.88
61757;BME280;57225;61.460;24.060;2023-06-22T09:32:06;99561.66;;;20.58;93.68
61757;BME280;57225;61.460;24.060;2023-06-22T09:34:50;99551.69;;;20.48;92.11
61757;BME280;57225;61.460;24.060;2023-06-22T09:37:35;99534.06;;;20.29;95.08
61757;BME280;57225;61.460;24.060;2023-06-22T09:40:20;99548.03;;;20.32;94.64
61757;BME280;57225;61.460;24.060;2023-06-22T09:43:05;99556.38;;;20.27;94.83
61757;BME280;57225;61.460;24.060;2023-06-22T09:45:49;99553.03;;;19.90;96.70
61757;BME280;57225;61.460;24.060;2023-06-22T09:48:35;99552.72;;;19.88;97.62
61757;BME280;57225;61.460;24.060;2023-06-22T09:51:19;99556.41;;;20.03;97.62
61757;BME280;57225;61.460;24.060;2023-06-22T09:54:05;99544.91;;;20.06;97.87
61757;BME280;57225;61.460;24.060;2023-06-22T09:56:50;99546.03;;;20.00;98.14
61757;BME280;57225;61.460;24.060;2023-06-22T09:59:34;99553.16;;;19.95;99.59
61757;BME280;57225;61.460;24.060;2023-06-22T10:02:19;99543.91;;;19.86;100.00
61757;BME280;57225;61.460;24.060;2023-06-22T10:05:03;99545.56;;;20.01;99.84
61757;BME280;57225;61.460;24.060;2023-06-22T10:07:48;99550.44;;;20.01;100.00
61757;BME280;57225;61.460;24.060;2023-06-22T10:10:33;99536.28;;;20.01;100.00
61757;BME280;57225;61.460;24.060;2023-06-22T10:13:17;99541.50;;;20.17;100.00
61757;BME280;57225;61.460;24.060;2023-06-22T10:16:03;99537.06;;;20.25;100.00
61757;BME280;57225;61.460;24.060;2023-06-22T10:18:47;99543.16;;;20.33;100.00
61757;BME280;57225;61.460;24.060;2023-06-22T10:21:32;99525.25;;;20.27;100.00
61757;BME280;57225;61.460;24.060;2023-06-22T10:24:17;99528.44;;;20.43;100.00
61757;BME280;57225;61.460;24.060;2023-06-22T10:27:02;99530.22;;;20.41;100.00
61757;BME280;57225;61.460;24.060;2023-06-22T10:29:46;99542.13;;;20.45;99.48
61757;BME280;57225;61.460;24.060;2023-06-22T10:32:31;99522.78;;;20.43;99.57
61757;BME280;57225;61.460;24.060;2023-06-22T10:35:15;99529.63;;;20.52;99.32
61757;BME280;57225;61.460;24.060;2023-06-22T10:38:00;99537.75;;;20.59;100.00
61757;BME280;57225;61.460;24.060;2023-06-22T10:40:45;99534.53;;;20.66;100.00
61757;BME280;57225;61.460;24.060;2023-06-22T10:43:29;99529.63;;;20.52;100.00
61757;BME280;57225;61.460;24.060;2023-06-22T10:46:14;99518.09;;;20.40;100.00
61757;BME280;57225;61.460;24.060;2023-06-22T10:48:59;99534.50;;;20.51;100.00
61757;BME280;57225;61.460;24.060;2023-06-22T10:51:43;99535.50;;;20.48;100.00
61757;BME280;57225;61.460;24.060;2023-06-22T10:54:27;99539.59;;;20.47;100.00
61757;BME280;57225;61.460;24.060;2023-06-22T10:57:13;99531.88;;;20.24;100.00
61757;BME280;57225;61.460;24.060;2023-06-22T10:59:58;99525.19;;;20.12;100.00
61757;BME280;57225;61.460;24.060;2023-06-22T11:02:43;99536.88;;;20.05;100.00
61757;BME280;57225;61.460;24.060;2023-06-22T11:05:27;99509.63;;;19.93;100.00
61757;BME280;57225;61.460;24.060;2023-06-22T11:08:12;99528.69;;;20.07;100.00
61757;BME280;57225;61.460;24.060;2023-06-22T11:10:56;99496.03;;;19.82;100.00
61757;BME280;57225;61.460;24.060;2023-06-22T11:13:40;99521.91;;;19.90;100.00
61757;BME280;57225;61.460;24.060;2023-06-22T11:16:25;99501.97;;;19.60;100.00
61757;BME280;57225;61.460;24.060;2023-06-22T11:19:09;99515.63;;;19.86;100.00
61757;BME280;57225;61.460;24.060;2023-06-22T11:21:54;99524.06;;;19.95;100.00
61757;BME280;57225;61.460;24.060;2023-06-22T11:24:38;99525.56;;;20.05;100.00
61757;BME280;57225;61.460;24.060;2023-06-22T11:27:23;99519.38;;;20.16;100.00
61757;BME280;57225;61.460;24.060;2023-06-22T11:30:08;99523.56;;;20.20;100.00
61757;BME280;57225;61.460;24.060;2023-06-22T11:32:52;99500.84;;;20.15;100.00
61757;BME280;57225;61.460;24.060;2023-06-22T11:35:37;99518.34;;;20.28;100.00
61757;BME280;57225;61.460;24.060;2023-06-22T11:38:21;99515.03;;;20.29;100.00
61757;BME280;57225;61.460;24.060;2023-06-22T11:41:07;99514.13;;;20.23;100.00
61757;BME280;57225;61.460;24.060;2023-06-22T11:43:52;99515.53;;;19.80;100.00
61757;BME280;57225;61.460;24.060;2023-06-22T11:46:36;99513.59;;;20.10;100.00
61757;BME280;57225;61.460;24.060;2023-06-22T11:49:21;99506.53;;;20.29;100.00
61757;BME280;57225;61.460;24.060;2023-06-22T11:52:05;99507.94;;;20.34;100.00
61757;BME280;57225;61.460;24.060;2023-06-22T11:54:50;99495.94;;;20.39;100.00
61757;BME280;57225;61.460;24.060;2023-06-22T11:57:39;99492.63;;;20.55;100.00
61757;BME280;57225;61.460;24.060;2023-06-22T12:00:35;99487.09;;;20.61;100.00
61757;BME280;57225;61.460;24.060;2023-06-22T12:03:20;99503.38;;;20.80;100.00
61757;BME280;57225;61.460;24.060;2023-06-22T12:06:07;99471.63;;;20.76;100.00
61757;BME280;57225;61.460;24.060;2023-06-22T12:08:52;99483.16;;;21.02;100.00
61757;BME280;57225;61.460;24.060;2023-06-22T12:11:36;99486.47;;;21.30;98.66
61757;BME280;57225;61.460;24.060;2023-06-22T12:14:21;99474.91;;;21.34;96.76
61757;BME280;57225;61.460;24.060;2023-06-22T12:17:05;99494.03;;;21.53;95.58
61757;BME280;57225;61.460;24.060;2023-06-22T12:19:50;99488.69;;;21.41;96.54
61757;BME280;57225;61.460;24.060;2023-06-22T12:22:35;99484.75;;;21.18;97.95
61757;BME280;57225;61.460;24.060;2023-06-22T12:25:22;99479.63;;;21.07;98.17
61757;BME280;57225;61.460;24.060;2023-06-22T12:28:06;99497.03;;;21.00;98.83
61757;BME280;57225;61.460;24.060;2023-06-22T12:30:50;99482.59;;;20.83;99.92
61757;BME280;57225;61.460;24.060;2023-06-22T12:33:35;99491.16;;;20.89;100.00
61757;BME280;57225;61.460;24.060;2023-06-22T12:36:20;99495.88;;;20.92;100.00
61757;BME280;57225;61.460;24.060;2023-06-22T12:39:04;99493.31;;;20.94;100.00
61757;BME280;57225;61.460;24.060;2023-06-22T12:41:49;99488.16;;;20.93;99.25
61757;BME280;57225;61.460;24.060;2023-06-22T12:44:34;99488.91;;;20.93;97.65
61757;BME280;57225;61.460;24.060;2023-06-22T12:47:18;99486.00;;;20.73;100.00
61757;BME280;57225;61.460;24.060;2023-06-22T12:50:04;99459.44;;;20.56;99.53
61757;BME280;57225;61.460;24.060;2023-06-22T12:52:49;99471.06;;;20.58;100.00
61757;BME280;57225;61.460;24.060;2023-06-22T12:55:33;99478.47;;;20.70;100.00
61757;BME280;57225;61.460;24.060;2023-06-22T12:58:18;99471.63;;;20.76;100.00
61757;BME280;57225;61.460;24.060;2023-06-22T13:01:03;99459.84;;;20.78;100.00
61757;BME280;57225;61.460;24.060;2023-06-22T13:03:48;99471.03;;;20.87;100.00
61757;BME280;57225;61.460;24.060;2023-06-22T13:06:32;99465.19;;;20.76;100.00
61757;BME280;57225;61.460;24.060;2023-06-22T13:09:18;99467.13;;;20.55;100.00
61757;BME280;57225;61.460;24.060;2023-06-22T13:12:03;99464.59;;;20.42;100.00
61757;BME280;57225;61.460;24.060;2023-06-22T13:14:49;99473.38;;;20.44;100.00
61757;BME280;57225;61.460;24.060;2023-06-22T13:17:33;99456.53;;;20.26;100.00
61757;BME280;57225;61.460;24.060;2023-06-22T13:20:18;99478.88;;;20.24;100.00
61757;BME280;57225;61.460;24.060;2023-06-22T13:23:03;99470.59;;;20.21;100.00
61757;BME280;57225;61.460;24.060;2023-06-22T13:25:47;99471.97;;;20.25;100.00
61757;BME280;57225;61.460;24.060;2023-06-22T13:28:32;99461.53;;;20.17;100.00
61757;BME280;57225;61.460;24.060;2023-06-22T13:31:17;99467.66;;;20.30;100.00
61757;BME280;57225;61.460;24.060;2023-06-22T13:34:02;99463.19;;;20.23;100.00
61757;BME280;57225;61.460;24.060;2023-06-22T13:36:46;99455.59;;;20.29;100.00
61757;BME280;57225;61.460;24.060;2023-06-22T13:39:31;99458.34;;;20.38;100.00
61757;BME280;57225;61.460;24.060;2023-06-22T13:42:15;99472.94;;;20.22;100.00
61757;BME280;57225;61.460;24.060;2023-06-22T13:45:00;99467.97;;;20.32;100.00
61757;BME280;57225;61.460;24.060;2023-06-22T13:47:44;99433.31;;;20.22;100.00
61757;BME280;57225;61.460;24.060;2023-06-22T13:50:29;99433.19;;;20.02;100.00
61757;BME280;57225;61.460;24.060;2023-06-22T13:53:26;99452.88;;;20.35;100.00
61757;BME280;57225;61.460;24.060;2023-06-22T13:56:10;99461.38;;;20.35;100.00
61757;BME280;57225;61.460;24.060;2023-06-22T13:58:54;99443.25;;;20.18;100.00
61757;BME280;57225;61.460;24.060;2023-06-22T14:01:39;99453.78;;;20.17;100.00
61757;BME280;57225;61.460;24.060;2023-06-22T14:04:24;99462.09;;;20.21;100.00
61757;BME280;57225;61.460;24.060;2023-06-22T14:07:08;99456.25;;;20.24;100.00
61757;BME280;57225;61.460;24.060;2023-06-22T14:09:53;99445.81;;;20.16;100.00
61757;BME280;57225;61.460;24.060;2023-06-22T14:12:37;99449.69;;;20.18;100.00
61757;BME280;57225;61.460;24.060;2023-06-22T14:15:22;99455.97;;;20.22;100.00
61757;BME280;57225;61.460;24.060;2023-06-22T14:18:06;99460.06;;;20.21;100.00
61757;BME280;57225;61.460;24.060;2023-06-22T14:20:52;99453.50;;;20.15;100.00
61757;BME280;57225;61.460;24.060;2023-06-22T14:23:36;99450.06;;;20.11;100.00
61757;BME280;57225;61.460;24.060;2023-06-22T14:26:22;99454.31;;;19.92;100.00
61757;BME280;57225;61.460;24.060;2023-06-22T14:29:06;99461.53;;;19.93;100.00